الصفحة الرئيسية
METAR-TAF:

METAR-TAF

مطار :

والس, فرنسا

دائرة عرض: 13-14S, خط طول: 176-10W, ارتفاع: 23 متر

مراقبة الطقس الحالي

تاريخ ووقت الإصدار 22 دقيقة قبل الساعة 04:00UTC
ريح 5 عقدةمن اتجاهات متغيرة
درجة الحرارة 26°درجة مئوية
الرطوبة 89%
ضغط 1000 hPa
الرؤية: 2000 متر
غيوم قليلة على ارتفاع 1300 قدم
غيوم مفككة على ارتفاع 2000 قدم
مطر, غشاء

METAR: NLWW 180400Z VRB05KT 2000 R08/0650D RA BR FEW013 BKN020 26/24 Q1000 TEMPO 3000 SHRA BKN012

زمن: 16:22 (04:22 UTC)

توقعات

تاريخ ووقت الإصدار 1ساعة و 12 دقيقة قبل الساعة 03:10UTC
التوقعات صالحة من18 الساعة 03 UTC إلى 18 الساعة 24 UTC
ريح 10 عقدة من الشرق/الجنوب الشرقي
الرؤية 10 كم أو أكثر
غيوم متفرقة على ارتفاع 1800 قدم
مؤقت
من 18 الساعة 03 UTC إلى 18 الساعة 06 UTC
الرؤية: 4000 متر
غيوم قليلة على ارتفاع 2000 قدم, مزن ركامية عمودية.
زخات من المطر

TAF: NLWW 180310Z 1803/1824 12010KT 9999 SCT018 TEMPO 1803/1806 4000 SHRA FEW020TCU

أرصاد الطقس والتوقعات من أكثر من 4000 مطار (تقارير الطقس للمطار METAR والتنبؤ بالطقس بالمطارTAF).

المحطات المتاحة هي النقط الصفراء والحمراء على الخريطة.

حرك المؤشر فوق النقطة لمعرفة اسم المحطة.

ثم انقر لمعرفة أرصاد وتوقعات الطقس.

لتغيير الخارطة: اضغط على الأزرار الخضراء مع رمز الصليب الأسود للتكبير. على الزر الأخضر مع شرطة للتصغير، أو على الأسهم الخضراء للخرائط المجاورة.


METAR-TAF: